Time;durP1;ratioP1;P1;durP2;ratioP2;P2;SDS_P1;SDS_P2;PMS_P1;PMS_P2;Temp;Humidity;BMP_temperature;BMP_pressure;BME280_temperature;BME280_humidity;BME280_pressure;Samples;Min_cycle;Max_cycle;Signal;HPM_P1;HPM_P2
2022/03/20 00:00:15;;;;;;;5.95;2.38;;;;;;;;;;4967617;28;93706;-77
2022/03/20 00:02:42;;;;;;;10.68;2.30;;;;;;;;;;4970528;28;93240;-77
2022/03/20 00:05:08;;;;;;;9.93;2.83;;;;;;;;;;4972666;28;92464;-78
2022/03/20 00:07:35;;;;;;;8.15;3.00;;;;;;;;;;4973691;28;95133;-78
2022/03/20 00:10:02;;;;;;;3.25;2.58;;;;;;;;;;4974553;28;93126;-78
2022/03/20 00:12:28;;;;;;;8.23;3.30;;;;;;;;;;4964939;28;93190;-78
2022/03/20 00:14:55;;;;;;;5.53;2.40;;;;;;;;;;4970178;28;93692;-78
2022/03/20 00:17:21;;;;;;;8.35;3.17;;;;;;;;;;4957690;28;94950;-78
2022/03/20 00:19:47;;;;;;;6.53;3.00;;;;;;;;;;4959267;28;98209;-78
2022/03/20 00:22:15;;;;;;;5.47;2.97;;;;;;;;;;4947815;28;93473;-78
2022/03/20 00:24:42;;;;;;;5.35;2.92;;;;;;;;;;4965029;28;92654;-78
2022/03/20 00:27:10;;;;;;;7.53;3.63;;;;;;;;;;4969003;28;93233;-78
2022/03/20 00:29:36;;;;;;;8.10;4.35;;;;;;;;;;4972645;28;93846;-78
2022/03/20 00:32:04;;;;;;;6.32;3.72;;;;;;;;;;4972876;28;93904;-78
2022/03/20 00:34:30;;;;;;;15.23;4.40;;;;;;;;;;4967366;28;93075;-78
2022/03/20 00:36:56;;;;;;;6.65;4.47;;;;;;;;;;4966189;28;92505;-78
2022/03/20 00:39:23;;;;;;;10.15;4.57;;;;;;;;;;4973441;28;93508;-78
2022/03/20 00:41:49;;;;;;;8.90;4.43;;;;;;;;;;4965168;28;95629;-78
2022/03/20 00:44:15;;;;;;;8.38;4.40;;;;;;;;;;4972043;28;92428;-78
2022/03/20 00:46:41;;;;;;;13.57;4.82;;;;;;;;;;4976015;28;93114;-78
2022/03/20 00:49:08;;;;;;;12.20;5.05;;;;;;;;;;4975589;28;93405;-78
2022/03/20 00:51:34;;;;;;;7.53;4.82;;;;;;;;;;4965907;28;92529;-78
2022/03/20 00:54:00;;;;;;;9.15;4.57;;;;;;;;;;4980189;28;93325;-78
2022/03/20 00:56:27;;;;;;;8.70;4.85;;;;;;;;;;4978444;28;92514;-78
2022/03/20 00:58:53;;;;;;;8.88;5.15;;;;;;;;;;4975681;28;93213;-77
2022/03/20 01:01:20;;;;;;;14.30;5.60;;;;;;;;;;4973584;28;93843;-78
2022/03/20 01:03:46;;;;;;;10.10;5.80;;;;;;;;;;4957493;28;92451;-78
2022/03/20 01:06:12;;;;;;;8.88;6.00;;;;;;;;;;4957497;28;94944;-78
2022/03/20 01:08:39;;;;;;;9.77;5.20;;;;;;;;;;4990038;28;95587;-78
2022/03/20 01:11:06;;;;;;;13.38;5.97;;;;;;;;;;4977290;28;92530;-78
2022/03/20 01:13:33;;;;;;;7.53;5.22;;;;;;;;;;4976293;28;92676;-78
2022/03/20 01:15:59;;;;;;;9.52;5.63;;;;;;;;;;4979855;28;93942;-78
2022/03/20 01:18:26;;;;;;;9.50;6.60;;;;;;;;;;4976219;28;92699;-78
2022/03/20 01:20:53;;;;;;;11.40;6.38;;;;;;;;;;4971401;28;93262;-78
2022/03/20 01:23:22;;;;;;;13.55;6.65;;;;;;;;;;4956578;28;91712;-78
2022/03/20 01:25:50;;;;;;;9.77;5.90;;;;;;;;;;4956501;28;92426;-78
2022/03/20 01:28:17;;;;;;;11.30;6.38;;;;;;;;;;4957290;28;94026;-78
2022/03/20 01:30:44;;;;;;;11.93;6.32;;;;;;;;;;4955407;28;94819;-78
2022/03/20 01:33:11;;;;;;;10.30;6.88;;;;;;;;;;4956619;28;97776;-78
2022/03/20 01:35:37;;;;;;;8.50;5.95;;;;;;;;;;4957175;28;93802;-78
2022/03/20 01:38:05;;;;;;;11.05;7.30;;;;;;;;;;4959660;28;92385;-78
2022/03/20 01:40:31;;;;;;;10.73;6.20;;;;;;;;;;4956017;28;96737;-78
2022/03/20 01:42:58;;;;;;;11.73;6.80;;;;;;;;;;4957257;28;92915;-78
2022/03/20 01:45:24;;;;;;;12.43;6.55;;;;;;;;;;4960237;28;92881;-78
2022/03/20 01:47:51;;;;;;;14.00;6.45;;;;;;;;;;4975484;28;92776;-78
2022/03/20 01:50:19;;;;;;;9.80;5.85;;;;;;;;;;4974295;28;92499;-79
2022/03/20 01:52:46;;;;;;;10.02;6.10;;;;;;;;;;4975315;28;93258;-79
2022/03/20 01:55:13;;;;;;;12.98;6.22;;;;;;;;;;4973093;28;95861;-79
2022/03/20 01:57:40;;;;;;;9.48;6.43;;;;;;;;;;4979444;28;92637;-79
2022/03/20 02:00:07;;;;;;;12.90;5.95;;;;;;;;;;4974990;28;93426;-79
2022/03/20 02:02:33;;;;;;;16.77;6.35;;;;;;;;;;4974435;28;92436;-78
2022/03/20 02:05:00;;;;;;;13.32;6.05;;;;;;;;;;4975668;28;93169;-79
2022/03/20 02:07:26;;;;;;;11.15;5.97;;;;;;;;;;4974997;28;93689;-79
2022/03/20 02:09:52;;;;;;;9.57;5.20;;;;;;;;;;4976409;28;92415;-79
2022/03/20 02:12:19;;;;;;;9.43;5.30;;;;;;;;;;4975549;28;93010;-79
2022/03/20 02:14:45;;;;;;;10.02;5.70;;;;;;;;;;4975963;28;93504;-78
2022/03/20 02:17:12;;;;;;;8.93;5.38;;;;;;;;;;4974579;28;92463;-78
2022/03/20 02:19:39;;;;;;;9.60;5.50;;;;;;;;;;4977274;28;94749;-78
2022/03/20 02:22:06;;;;;;;11.02;5.63;;;;;;;;;;4960557;28;92429;-79
2022/03/20 02:24:33;;;;;;;10.13;5.50;;;;;;;;;;4955369;28;93473;-79
2022/03/20 02:27:09;;;;;;;13.65;5.43;;;;;;;;;;4956093;28;93707;-78
2022/03/20 02:29:36;;;;;;;10.02;5.32;;;;;;;;;;4955601;28;92466;-79
2022/03/20 02:32:04;;;;;;;11.60;5.53;;;;;;;;;;4956237;28;93124;-78
2022/03/20 02:34:31;;;;;;;14.70;5.50;;;;;;;;;;4955776;28;93564;-78
2022/03/20 02:36:58;;;;;;;14.63;5.40;;;;;;;;;;4956875;28;91781;-79
2022/03/20 02:39:24;;;;;;;13.25;5.55;;;;;;;;;;4956280;28;92571;-78
2022/03/20 02:41:51;;;;;;;10.13;5.32;;;;;;;;;;4959031;28;93263;-79
2022/03/20 02:44:18;;;;;;;12.15;4.80;;;;;;;;;;4955133;28;94873;-79
2022/03/20 02:46:44;;;;;;;10.35;5.43;;;;;;;;;;4969504;28;93390;-79
2022/03/20 02:49:11;;;;;;;8.25;5.20;;;;;;;;;;4975688;28;92439;-78
2022/03/20 02:51:38;;;;;;;14.23;5.93;;;;;;;;;;4975381;28;92825;-79
2022/03/20 02:54:04;;;;;;;8.75;5.57;;;;;;;;;;4975186;28;93473;-79
2022/03/20 02:56:32;;;;;;;11.38;5.50;;;;;;;;;;4975519;28;92462;-78
2022/03/20 02:58:59;;;;;;;13.52;5.50;;;;;;;;;;4975006;28;92445;-78
2022/03/20 03:01:25;;;;;;;12.63;6.10;;;;;;;;;;4975723;28;93042;-79
2022/03/20 03:03:53;;;;;;;8.52;5.70;;;;;;;;;;4978738;28;92414;-79
2022/03/20 03:06:20;;;;;;;15.23;5.63;;;;;;;;;;4972355;28;93936;-78
2022/03/20 03:11:31;;;;;;;12.60;6.00;;;;;;;;;;4975350;28;95957;-78
2022/03/20 03:15:18;;;;;;;10.52;5.88;;;;;;;;;;4973316;28;93588;-78
2022/03/20 03:16:43;;;;;;;11.95;5.95;;;;;;;;;;4974739;28;92742;-78
2022/03/20 03:19:12;;;;;;;11.75;6.30;;;;;;;;;;4974991;28;94002;-78
2022/03/20 03:21:38;;;;;;;9.90;6.32;;;;;;;;;;4973630;28;96659;-79
2022/03/20 03:24:05;;;;;;;11.85;6.40;;;;;;;;;;4974744;28;92404;-79
2022/03/20 03:26:31;;;;;;;15.98;6.63;;;;;;;;;;4978867;28;93059;-79
2022/03/20 03:28:59;;;;;;;19.75;7.32;;;;;;;;;;4973110;28;92483;-79
2022/03/20 03:31:25;;;;;;;14.30;6.90;;;;;;;;;;4974337;28;94033;-79
2022/03/20 03:36:36;;;;;;;11.52;6.95;;;;;;;;;;4974580;28;92567;-79
2022/03/20 03:39:02;;;;;;;10.00;6.53;;;;;;;;;;4973197;28;93076;-78
2022/03/20 03:41:29;;;;;;;14.05;6.82;;;;;;;;;;4973499;28;96063;-78
2022/03/20 03:43:55;;;;;;;11.00;6.43;;;;;;;;;;4974736;28;93050;-79
2022/03/20 03:46:22;;;;;;;16.92;7.40;;;;;;;;;;4976878;28;93011;-79
2022/03/20 03:48:48;;;;;;;13.30;7.43;;;;;;;;;;4974279;28;92448;-78
2022/03/20 03:51:14;;;;;;;10.77;7.03;;;;;;;;;;4974752;28;92898;-78
2022/03/20 03:53:40;;;;;;;14.52;7.78;;;;;;;;;;4974694;28;93497;-79
2022/03/20 03:56:08;;;;;;;13.38;7.38;;;;;;;;;;4974278;28;92454;-79
2022/03/20 03:58:34;;;;;;;12.00;7.60;;;;;;;;;;4972476;28;94985;-79
2022/03/20 04:01:00;;;;;;;23.63;7.68;;;;;;;;;;4974547;28;93918;-78
2022/03/20 04:03:27;;;;;;;18.48;7.82;;;;;;;;;;4974852;28;92824;-78
2022/03/20 04:05:56;;;;;;;14.90;8.27;;;;;;;;;;4974333;28;92374;-78
2022/03/20 04:08:22;;;;;;;15.15;8.10;;;;;;;;;;4977631;28;93649;-79
2022/03/20 04:10:48;;;;;;;15.40;7.90;;;;;;;;;;4974080;28;93519;-78
2022/03/20 04:13:15;;;;;;;14.00;7.85;;;;;;;;;;4973953;28;94229;-79
2022/03/20 04:15:41;;;;;;;13.77;7.93;;;;;;;;;;4974677;28;92043;-78
2022/03/20 04:18:08;;;;;;;17.23;8.57;;;;;;;;;;4973583;28;92869;-78
2022/03/20 04:20:36;;;;;;;14.00;8.30;;;;;;;;;;4972718;28;93080;-78
2022/03/20 04:25:47;;;;;;;17.23;9.18;;;;;;;;;;4974576;28;95835;-78
2022/03/20 04:28:13;;;;;;;16.35;8.98;;;;;;;;;;4973720;28;93522;-80
2022/03/20 04:30:39;;;;;;;13.98;9.35;;;;;;;;;;4977626;28;92353;-79
2022/03/20 04:33:06;;;;;;;14.77;9.27;;;;;;;;;;4974058;28;93489;-78
2022/03/20 04:35:32;;;;;;;16.65;8.55;;;;;;;;;;4974033;28;92837;-78
2022/03/20 04:38:01;;;;;;;17.77;8.68;;;;;;;;;;4973909;28;93118;-78
2022/03/20 04:40:28;;;;;;;21.55;9.20;;;;;;;;;;4974016;28;92683;-78
2022/03/20 04:42:54;;;;;;;16.40;9.25;;;;;;;;;;4973868;28;92539;-78
2022/03/20 04:45:21;;;;;;;17.55;9.15;;;;;;;;;;4974561;28;93177;-79
2022/03/20 04:58:47;;;;;;;20.90;9.80;;;;;;;;;;4973554;28;93070;-78
2022/03/20 05:01:14;;;;;;;14.98;9.40;;;;;;;;;;4973407;28;93299;-78
2022/03/20 05:03:40;;;;;;;19.77;10.52;;;;;;;;;;4973713;28;92483;-76
2022/03/20 05:06:06;;;;;;;20.67;10.60;;;;;;;;;;4971345;28;94349;-79
2022/03/20 05:08:35;;;;;;;20.02;10.35;;;;;;;;;;4973544;28;93537;-78
2022/03/20 05:13:47;;;;;;;20.83;10.73;;;;;;;;;;4971156;28;95240;-78
2022/03/20 05:16:14;;;;;;;27.55;10.40;;;;;;;;;;4975857;28;93646;-79
2022/03/20 05:18:40;;;;;;;20.95;10.57;;;;;;;;;;4972703;28;93278;-76
2022/03/20 05:21:10;;;;;;;17.98;11.00;;;;;;;;;;4965418;28;93455;-79
2022/03/20 05:23:36;;;;;;;18.17;10.00;;;;;;;;;;4953257;28;92590;-79
2022/03/20 05:26:03;;;;;;;22.58;11.40;;;;;;;;;;4952185;28;93729;-78
2022/03/20 05:28:29;;;;;;;17.85;11.13;;;;;;;;;;4953035;28;92378;-78
2022/03/20 05:30:55;;;;;;;25.15;11.45;;;;;;;;;;4956672;28;92261;-78
2022/03/20 05:33:22;;;;;;;23.33;10.77;;;;;;;;;;4971505;28;92525;-78
2022/03/20 05:35:50;;;;;;;18.52;10.38;;;;;;;;;;4955095;28;93209;-78
2022/03/20 05:38:16;;;;;;;22.58;11.32;;;;;;;;;;4958036;28;95274;-78
2022/03/20 05:40:44;;;;;;;22.67;11.27;;;;;;;;;;4955987;28;94310;-78
2022/03/20 05:43:10;;;;;;;18.67;11.20;;;;;;;;;;4956122;28;93084;-79
2022/03/20 05:45:40;;;;;;;23.88;11.30;;;;;;;;;;4941444;28;93198;-79
2022/03/20 05:48:08;;;;;;;18.42;11.00;;;;;;;;;;4956045;28;93314;-78
2022/03/20 05:50:35;;;;;;;21.10;12.18;;;;;;;;;;4955959;28;92494;-79
2022/03/20 05:53:01;;;;;;;22.35;10.98;;;;;;;;;;4955398;28;93245;-78
2022/03/20 05:58:15;;;;;;;21.10;11.98;;;;;;;;;;4959483;28;92325;-78
2022/03/20 06:00:41;;;;;;;28.13;11.50;;;;;;;;;;4956024;28;94416;-78
2022/03/20 06:03:11;;;;;;;22.17;11.40;;;;;;;;;;4954102;28;94854;-79
2022/03/20 06:05:38;;;;;;;25.23;12.13;;;;;;;;;;4956076;28;96110;-78
2022/03/20 06:08:05;;;;;;;23.33;11.93;;;;;;;;;;4953906;28;92502;-78
2022/03/20 06:10:32;;;;;;;29.50;12.10;;;;;;;;;;4955760;28;92419;-78
2022/03/20 06:12:59;;;;;;;22.80;11.63;;;;;;;;;;4955937;28;93177;-78
2022/03/20 06:15:25;;;;;;;21.60;12.05;;;;;;;;;;4960232;28;93305;-78
2022/03/20 06:17:52;;;;;;;20.80;12.02;;;;;;;;;;4974964;28;92415;-78
2022/03/20 06:20:18;;;;;;;21.00;11.30;;;;;;;;;;4976462;28;93259;-78
2022/03/20 06:22:45;;;;;;;26.50;11.88;;;;;;;;;;4955593;28;92477;-78
2022/03/20 06:25:15;;;;;;;23.50;12.07;;;;;;;;;;4953970;28;93136;-79
2022/03/20 06:27:41;;;;;;;23.83;11.82;;;;;;;;;;4953897;28;96043;-78
2022/03/20 06:30:08;;;;;;;23.88;12.82;;;;;;;;;;4955870;28;93410;-78
2022/03/20 06:32:35;;;;;;;22.00;12.75;;;;;;;;;;4955322;28;94322;-78
2022/03/20 06:35:02;;;;;;;23.50;12.55;;;;;;;;;;4955380;28;93424;-79
2022/03/20 06:37:28;;;;;;;21.45;12.88;;;;;;;;;;4954333;28;92464;-78
2022/03/20 06:39:54;;;;;;;21.65;12.32;;;;;;;;;;4953774;28;93291;-79
2022/03/20 06:42:21;;;;;;;27.45;13.48;;;;;;;;;;4957968;28;92699;-79
2022/03/20 06:44:47;;;;;;;22.88;12.43;;;;;;;;;;4954808;28;96889;-78
2022/03/20 06:47:14;;;;;;;22.65;12.65;;;;;;;;;;4971837;28;93499;-79
2022/03/20 06:49:41;;;;;;;21.92;12.30;;;;;;;;;;4974533;28;92530;-78
2022/03/20 06:52:07;;;;;;;26.48;13.18;;;;;;;;;;4972222;28;94844;-79
2022/03/20 06:54:34;;;;;;;23.10;12.27;;;;;;;;;;4974589;28;93883;-78
2022/03/20 06:57:00;;;;;;;25.70;13.48;;;;;;;;;;4972913;28;92745;-79
2022/03/20 06:59:26;;;;;;;23.52;13.30;;;;;;;;;;4974646;28;93365;-79
2022/03/20 07:01:53;;;;;;;23.42;12.82;;;;;;;;;;4974402;28;94551;-78
2022/03/20 07:04:19;;;;;;;19.83;12.77;;;;;;;;;;4975964;28;92916;-79
2022/03/20 07:06:45;;;;;;;21.17;13.02;;;;;;;;;;4971982;28;93252;-79
2022/03/20 07:09:12;;;;;;;22.85;12.68;;;;;;;;;;4973168;28;91686;-79
2022/03/20 07:11:38;;;;;;;23.02;13.32;;;;;;;;;;4974866;28;92550;-78
2022/03/20 07:14:04;;;;;;;24.92;13.02;;;;;;;;;;4974259;28;93649;-79
2022/03/20 07:16:33;;;;;;;22.27;13.00;;;;;;;;;;4972995;28;95262;-79
2022/03/20 07:18:59;;;;;;;19.63;12.77;;;;;;;;;;4973881;28;95775;-79
2022/03/20 07:21:25;;;;;;;23.60;13.38;;;;;;;;;;4963242;28;93805;-78
2022/03/20 07:23:54;;;;;;;26.25;13.77;;;;;;;;;;4953877;28;92501;-78
2022/03/20 07:31:53;;;;;;;23.35;14.00;;;;;;;;;;4954476;28;93252;-76
2022/03/20 07:34:19;;;;;;;25.30;13.70;;;;;;;;;;4954232;28;91802;-79
2022/03/20 07:36:46;;;;;;;26.23;14.20;;;;;;;;;;4954814;28;92893;-79
2022/03/20 07:39:12;;;;;;;25.73;13.88;;;;;;;;;;4954725;28;92860;-79
2022/03/20 07:41:40;;;;;;;22.83;13.65;;;;;;;;;;4953285;28;95994;-79
2022/03/20 07:44:06;;;;;;;21.55;13.90;;;;;;;;;;4952853;28;92634;-79
2022/03/20 07:46:32;;;;;;;26.23;13.82;;;;;;;;;;4968551;28;93211;-79
2022/03/20 07:49:00;;;;;;;29.88;13.85;;;;;;;;;;4976208;28;93692;-79
2022/03/20 07:51:30;;;;;;;25.58;14.45;;;;;;;;;;4973454;28;92400;-78
2022/03/20 07:53:56;;;;;;;27.48;14.13;;;;;;;;;;4973102;28;93607;-79
2022/03/20 07:56:23;;;;;;;27.77;14.43;;;;;;;;;;4974383;28;92418;-79
2022/03/20 07:58:49;;;;;;;28.33;15.20;;;;;;;;;;4973863;28;94350;-79
2022/03/20 08:01:16;;;;;;;24.50;14.63;;;;;;;;;;4972906;28;93459;-79
2022/03/20 08:03:48;;;;;;;29.75;13.95;;;;;;;;;;4972447;28;92434;-79
2022/03/20 08:06:15;;;;;;;23.92;14.68;;;;;;;;;;4971126;28;94903;-79
2022/03/20 08:08:42;;;;;;;25.67;14.70;;;;;;;;;;4976404;28;93773;-79
2022/03/20 08:11:09;;;;;;;30.55;14.57;;;;;;;;;;4973235;28;92988;-79
2022/03/20 08:13:35;;;;;;;31.30;15.40;;;;;;;;;;4971951;28;93349;-79
2022/03/20 08:16:01;;;;;;;29.05;14.65;;;;;;;;;;4973358;28;92403;-79
2022/03/20 08:18:28;;;;;;;25.52;14.05;;;;;;;;;;4973925;28;93316;-79
2022/03/20 08:20:54;;;;;;;27.85;14.18;;;;;;;;;;4967810;28;93731;-79
2022/03/20 08:23:21;;;;;;;26.63;13.70;;;;;;;;;;4952881;28;91719;-79
2022/03/20 08:25:48;;;;;;;27.08;14.88;;;;;;;;;;4952492;28;92752;-79
2022/03/20 08:28:14;;;;;;;24.40;14.65;;;;;;;;;;4953486;28;93787;-79
2022/03/20 08:30:40;;;;;;;29.27;15.82;;;;;;;;;;4955245;28;94911;-78
2022/03/20 08:33:06;;;;;;;26.48;14.88;;;;;;;;;;4953784;28;93248;-79
2022/03/20 08:35:33;;;;;;;27.20;16.15;;;;;;;;;;4952102;28;92549;-79
2022/03/20 08:37:59;;;;;;;25.80;14.65;;;;;;;;;;4954004;28;93029;-79
2022/03/20 08:40:26;;;;;;;26.58;15.63;;;;;;;;;;4953820;28;93860;-79
2022/03/20 08:42:53;;;;;;;30.45;16.25;;;;;;;;;;4953894;28;92433;-79
2022/03/20 08:45:23;;;;;;;24.45;15.13;;;;;;;;;;4957945;28;96639;-79
2022/03/20 08:47:50;;;;;;;29.08;16.02;;;;;;;;;;4973064;28;92751;-79
2022/03/20 08:50:17;;;;;;;28.50;15.90;;;;;;;;;;4972525;28;92937;-79
2022/03/20 08:52:48;;;;;;;28.05;15.48;;;;;;;;;;4976122;28;93363;-79
2022/03/20 08:55:15;;;;;;;25.35;15.65;;;;;;;;;;4971266;28;94890;-79
2022/03/20 08:57:42;;;;;;;26.17;15.40;;;;;;;;;;4973634;28;97707;-79
2022/03/20 09:00:10;;;;;;;29.80;14.82;;;;;;;;;;4972928;28;96541;-79
2022/03/20 09:02:36;;;;;;;27.80;16.55;;;;;;;;;;4972804;28;92904;-79
2022/03/20 09:05:05;;;;;;;26.35;16.23;;;;;;;;;;4974195;28;93198;-78
2022/03/20 09:07:32;;;;;;;25.73;15.95;;;;;;;;;;4975435;28;93436;-79
2022/03/20 09:09:58;;;;;;;25.35;15.90;;;;;;;;;;4974990;28;93129;-79
2022/03/20 09:12:24;;;;;;;31.48;16.90;;;;;;;;;;4977512;28;93346;-79
2022/03/20 09:14:50;;;;;;;34.38;16.10;;;;;;;;;;4977511;28;93762;-79
2022/03/20 09:20:02;;;;;;;34.17;16.73;;;;;;;;;;4974754;28;96126;-79
2022/03/20 09:22:29;;;;;;;24.23;16.05;;;;;;;;;;4958468;28;92363;-79
2022/03/20 09:24:55;;;;;;;28.52;17.08;;;;;;;;;;4956043;28;92970;-79
2022/03/20 09:27:22;;;;;;;33.08;16.85;;;;;;;;;;4956412;28;93475;-79
2022/03/20 09:29:49;;;;;;;32.22;16.75;;;;;;;;;;4954631;28;92673;-78
2022/03/20 09:32:17;;;;;;;32.03;17.17;;;;;;;;;;4956487;28;93253;-79
2022/03/20 09:34:43;;;;;;;32.15;17.10;;;;;;;;;;4956888;28;93421;-79
2022/03/20 09:37:09;;;;;;;36.78;17.95;;;;;;;;;;4960172;28;91787;-79
2022/03/20 09:39:36;;;;;;;28.52;16.30;;;;;;;;;;4955404;28;93581;-79
2022/03/20 09:42:02;;;;;;;27.60;16.63;;;;;;;;;;4956127;28;92404;-79
2022/03/20 09:44:29;;;;;;;26.77;17.13;;;;;;;;;;4954559;28;94747;-79
2022/03/20 09:46:56;;;;;;;30.85;17.60;;;;;;;;;;4972839;28;93633;-79
2022/03/20 09:49:25;;;;;;;32.58;17.85;;;;;;;;;;4975775;28;92431;-79
2022/03/20 09:51:52;;;;;;;31.20;17.80;;;;;;;;;;4976102;28;95619;-79
2022/03/20 09:54:19;;;;;;;29.58;17.27;;;;;;;;;;4975175;28;93453;-79
2022/03/20 09:56:48;;;;;;;38.13;18.17;;;;;;;;;;4975076;28;93385;-79
2022/03/20 09:59:15;;;;;;;34.60;18.00;;;;;;;;;;4978711;28;93189;-79
2022/03/20 10:01:41;;;;;;;28.30;17.00;;;;;;;;;;4976122;28;91630;-79
2022/03/20 10:04:11;;;;;;;27.52;16.45;;;;;;;;;;4975436;28;92998;-79
2022/03/20 10:06:39;;;;;;;28.02;16.85;;;;;;;;;;4974072;28;94749;-78
2022/03/20 10:09:06;;;;;;;33.30;17.23;;;;;;;;;;4972084;28;96587;-78
2022/03/20 10:11:35;;;;;;;24.90;17.35;;;;;;;;;;4975649;28;95637;-80
2022/03/20 10:14:09;;;;;;;27.25;17.45;;;;;;;;;;4973835;28;94014;-80
2022/03/20 10:16:38;;;;;;;33.95;18.77;;;;;;;;;;4988548;28;92426;-80
2022/03/20 10:19:22;;;;;;;26.23;18.00;;;;;;;;;;4996343;28;93184;-80
2022/03/20 10:21:55;;;;;;;25.25;18.05;;;;;;;;;;4980776;28;92470;-80
2022/03/20 10:24:23;;;;;;;30.15;18.48;;;;;;;;;;4975419;28;94577;-80
2022/03/20 10:27:02;;;;;;;28.30;18.60;;;;;;;;;;4974125;28;92880;-80
2022/03/20 10:29:29;;;;;;;28.45;18.40;;;;;;;;;;4975167;28;92490;-80
2022/03/20 10:31:59;;;;;;;26.88;19.20;;;;;;;;;;4974741;28;93069;-80
2022/03/20 10:34:25;;;;;;;30.50;18.83;;;;;;;;;;4971812;28;96524;-80
2022/03/20 10:36:52;;;;;;;38.85;19.35;;;;;;;;;;4974194;28;92394;-80
2022/03/20 10:39:19;;;;;;;28.90;18.42;;;;;;;;;;4975093;28;93747;-80
2022/03/20 10:41:46;;;;;;;33.38;19.83;;;;;;;;;;4977997;28;92406;-80
2022/03/20 10:44:31;;;;;;;30.33;19.10;;;;;;;;;;4974539;28;93255;-80
2022/03/20 10:47:05;;;;;;;31.77;19.25;;;;;;;;;;4973718;28;94301;-80
2022/03/20 10:49:31;;;;;;;32.10;19.60;;;;;;;;;;4974675;28;92404;-79
2022/03/20 10:52:05;;;;;;;35.03;20.25;;;;;;;;;;4973639;28;93284;-80
2022/03/20 10:54:38;;;;;;;26.80;19.23;;;;;;;;;;4973356;28;93263;-80
2022/03/20 10:57:08;;;;;;;37.50;20.30;;;;;;;;;;4973639;28;92523;-80
2022/03/20 10:59:35;;;;;;;29.02;20.10;;;;;;;;;;4971677;28;94843;-79
2022/03/20 11:02:02;;;;;;;34.22;19.27;;;;;;;;;;4972810;28;93491;-79
2022/03/20 11:04:28;;;;;;;36.58;19.65;;;;;;;;;;4977660;28;92388;-80
2022/03/20 11:06:57;;;;;;;33.97;20.58;;;;;;;;;;4972595;28;94188;-79
2022/03/20 11:09:23;;;;;;;29.90;20.42;;;;;;;;;;4973004;28;92568;-80
2022/03/20 11:11:51;;;;;;;35.05;20.90;;;;;;;;;;4972888;28;93061;-80
2022/03/20 11:14:19;;;;;;;34.10;21.20;;;;;;;;;;4974320;28;93443;-80
2022/03/20 11:16:47;;;;;;;34.35;20.80;;;;;;;;;;4974036;28;91698;-79
2022/03/20 11:19:15;;;;;;;35.90;20.08;;;;;;;;;;4974273;28;92827;-79
2022/03/20 11:21:44;;;;;;;35.67;22.10;;;;;;;;;;4962406;28;93370;-79
2022/03/20 11:24:11;;;;;;;32.13;21.30;;;;;;;;;;4952877;28;95113;-80
2022/03/20 11:26:39;;;;;;;38.42;21.67;;;;;;;;;;4957490;28;95591;-80
2022/03/20 11:29:08;;;;;;;32.75;20.40;;;;;;;;;;4954066;28;92589;-79
2022/03/20 11:31:36;;;;;;;31.83;21.65;;;;;;;;;;4954637;28;93362;-79
2022/03/20 11:34:03;;;;;;;36.30;22.77;;;;;;;;;;4952885;28;93543;-79
2022/03/20 11:36:29;;;;;;;34.80;22.52;;;;;;;;;;4954717;28;92549;-80
2022/03/20 11:39:09;;;;;;;37.00;23.60;;;;;;;;;;4954295;28;93306;-79
2022/03/20 11:41:35;;;;;;;36.13;21.77;;;;;;;;;;4953900;28;92202;-80
2022/03/20 11:44:10;;;;;;;35.83;21.52;;;;;;;;;;4953869;28;92412;-79
2022/03/20 11:46:37;;;;;;;38.50;21.75;;;;;;;;;;4967966;28;93300;-79
2022/03/20 11:49:20;;;;;;;33.83;22.27;;;;;;;;;;4975165;28;95838;-80
2022/03/20 11:51:56;;;;;;;33.63;21.92;;;;;;;;;;4974280;28;96022;-79
2022/03/20 11:54:40;;;;;;;33.17;21.52;;;;;;;;;;4973521;28;93543;-80
2022/03/20 11:57:27;;;;;;;41.15;23.35;;;;;;;;;;4972436;28;92383;-79
2022/03/20 12:00:10;;;;;;;36.72;23.52;;;;;;;;;;4973260;28;93512;-78
2022/03/20 12:02:48;;;;;;;43.97;22.98;;;;;;;;;;4972854;28;96323;-79
2022/03/20 12:05:17;;;;;;;32.55;21.52;;;;;;;;;;4973156;28;92466;-79
2022/03/20 12:07:47;;;;;;;32.10;21.92;;;;;;;;;;4973854;28;93514;-79
2022/03/20 12:10:22;;;;;;;35.63;22.63;;;;;;;;;;4973422;28;93804;-80
2022/03/20 12:12:59;;;;;;;38.13;22.27;;;;;;;;;;4976473;28;92451;-79
2022/03/20 12:15:27;;;;;;;32.47;22.10;;;;;;;;;;4971152;28;97323;-79
2022/03/20 12:18:01;;;;;;;37.55;22.25;;;;;;;;;;4973469;28;92356;-79
2022/03/20 12:20:46;;;;;;;35.40;22.38;;;;;;;;;;4971608;28;93589;-79
2022/03/20 12:23:32;;;;;;;50.60;23.15;;;;;;;;;;4953668;28;93423;-79
2022/03/20 12:26:18;;;;;;;37.75;22.50;;;;;;;;;;4953964;28;93042;-77
2022/03/20 12:28:44;;;;;;;36.47;23.40;;;;;;;;;;4953783;28;93711;-79
2022/03/20 12:31:10;;;;;;;38.70;23.55;;;;;;;;;;4968837;28;94723;-79
2022/03/20 12:33:37;;;;;;;37.75;24.63;;;;;;;;;;4975760;28;91678;-79
2022/03/20 12:36:23;;;;;;;38.67;24.13;;;;;;;;;;4972808;28;93974;-79
2022/03/20 12:38:49;;;;;;;35.88;23.73;;;;;;;;;;4971318;28;92469;-79
2022/03/20 12:41:17;;;;;;;38.08;24.10;;;;;;;;;;4969577;28;94787;-78
2022/03/20 12:43:56;;;;;;;35.50;23.83;;;;;;;;;;4973272;28;92761;-79
2022/03/20 12:46:22;;;;;;;37.08;23.58;;;;;;;;;;4973391;28;92385;-79
2022/03/20 12:48:55;;;;;;;36.75;23.58;;;;;;;;;;4972987;28;93277;-79
2022/03/20 12:51:29;;;;;;;43.27;24.70;;;;;;;;;;4972890;28;93397;-79
2022/03/20 12:53:59;;;;;;;45.00;23.90;;;;;;;;;;4973098;28;92446;-79
2022/03/20 12:56:28;;;;;;;42.25;23.80;;;;;;;;;;4975720;28;93548;-79
2022/03/20 12:58:55;;;;;;;41.55;23.95;;;;;;;;;;4971995;28;91780;-79
2022/03/20 13:01:21;;;;;;;38.55;23.52;;;;;;;;;;4973128;28;92520;-80
2022/03/20 13:03:48;;;;;;;41.85;24.95;;;;;;;;;;4971918;28;93416;-79
2022/03/20 13:06:15;;;;;;;35.80;23.90;;;;;;;;;;4971253;28;95467;-79
2022/03/20 13:08:45;;;;;;;37.63;23.20;;;;;;;;;;4971151;28;95653;-79
2022/03/20 13:14:05;;;;;;;37.10;25.33;;;;;;;;;;4973304;28;92591;-80
2022/03/20 13:16:33;;;;;;;43.05;27.15;;;;;;;;;;4972478;28;96348;-79
2022/03/20 13:19:01;;;;;;;40.42;24.38;;;;;;;;;;4975920;28;95529;-80
2022/03/20 13:21:29;;;;;;;42.90;25.08;;;;;;;;;;4962952;28;93091;-80
2022/03/20 13:23:56;;;;;;;41.75;24.90;;;;;;;;;;4953234;28;92687;-79
2022/03/20 13:26:22;;;;;;;45.17;25.25;;;;;;;;;;4953497;28;92414;-80
2022/03/20 13:28:49;;;;;;;37.92;24.48;;;;;;;;;;4952824;28;93697;-79
2022/03/20 13:31:20;;;;;;;38.73;25.93;;;;;;;;;;4950332;28;96308;-79
2022/03/20 13:33:51;;;;;;;43.83;25.75;;;;;;;;;;4951599;28;92472;-79
2022/03/20 13:36:22;;;;;;;39.67;24.85;;;;;;;;;;4953479;28;95052;-79
2022/03/20 13:38:50;;;;;;;41.75;25.73;;;;;;;;;;4951823;28;94657;-79
2022/03/20 13:41:18;;;;;;;45.03;25.52;;;;;;;;;;4956275;28;92494;-79
2022/03/20 13:43:45;;;;;;;40.22;25.10;;;;;;;;;;4952659;28;93469;-79
2022/03/20 13:46:19;;;;;;;42.17;24.60;;;;;;;;;;4964000;28;92523;-79
2022/03/20 13:48:49;;;;;;;48.08;26.42;;;;;;;;;;4971449;28;93126;-78
2022/03/20 13:51:23;;;;;;;36.22;24.58;;;;;;;;;;4974437;28;93620;-79
2022/03/20 13:54:08;;;;;;;41.83;25.25;;;;;;;;;;4975805;28;92424;-80
2022/03/20 13:56:35;;;;;;;40.17;25.95;;;;;;;;;;4974854;28;94802;-79
2022/03/20 13:59:03;;;;;;;38.70;24.95;;;;;;;;;;4975962;28;93553;-79
2022/03/20 14:01:30;;;;;;;41.85;25.85;;;;;;;;;;4975691;28;92418;-79
2022/03/20 14:04:07;;;;;;;41.53;25.60;;;;;;;;;;4978315;28;92366;-79
2022/03/20 14:06:37;;;;;;;38.47;23.83;;;;;;;;;;4975864;28;92458;-79
2022/03/20 14:09:03;;;;;;;38.87;22.50;;;;;;;;;;4975728;28;94320;-79
2022/03/20 14:11:32;;;;;;;37.95;24.13;;;;;;;;;;4975906;28;93630;-79
2022/03/20 14:13:58;;;;;;;41.47;25.98;;;;;;;;;;4976100;28;92477;-79
2022/03/20 14:16:24;;;;;;;37.45;23.60;;;;;;;;;;4976038;28;92605;-79
2022/03/20 14:18:51;;;;;;;43.05;24.98;;;;;;;;;;4975543;28;93734;-79
2022/03/20 14:21:19;;;;;;;38.40;24.92;;;;;;;;;;4965707;28;95141;-79
2022/03/20 14:24:08;;;;;;;40.53;23.65;;;;;;;;;;4959086;28;95993;-79
2022/03/20 14:26:38;;;;;;;37.72;22.85;;;;;;;;;;4955139;28;92660;-79
2022/03/20 14:39:26;;;;;;;34.97;21.98;;;;;;;;;;4953976;28;93347;-79
2022/03/20 14:40:37;;;;;;;31.42;17.48;;;;;;;;;;4957338;28;92502;-79
2022/03/20 14:43:10;;;;;;;25.50;16.65;;;;;;;;;;4955819;28;92403;-79
2022/03/20 14:45:39;;;;;;;26.23;17.40;;;;;;;;;;4962859;28;94498;-79
2022/03/20 14:48:09;;;;;;;36.03;18.83;;;;;;;;;;4977498;28;96093;-80
2022/03/20 14:50:36;;;;;;;33.47;19.50;;;;;;;;;;4976231;28;95929;-79
2022/03/20 14:53:03;;;;;;;31.60;19.17;;;;;;;;;;4976149;28;93283;-79
2022/03/20 14:55:29;;;;;;;25.33;17.55;;;;;;;;;;4978701;28;92598;-78
2022/03/20 14:57:55;;;;;;;32.38;21.80;;;;;;;;;;4978457;28;93785;-79
2022/03/20 15:00:23;;;;;;;35.10;21.27;;;;;;;;;;4977399;28;92829;-79
2022/03/20 15:02:49;;;;;;;34.58;22.70;;;;;;;;;;4975451;28;92487;-79
2022/03/20 15:05:16;;;;;;;33.53;21.17;;;;;;;;;;4975462;28;93449;-79
2022/03/20 15:11:23;;;;;;;34.00;20.10;;;;;;;;;;4974438;28;93097;-79
2022/03/20 15:13:15;;;;;;;34.20;23.13;;;;;;;;;;4972233;28;96346;-79
2022/03/20 15:15:41;;;;;;;35.40;22.50;;;;;;;;;;4974082;28;92588;-78